Weather at Hassan I Airport

Public forecast

Using degrees Celsius for public forecast. Weather courtesy of forecast.io.

Current aviation weather report (METAR) for Hassan I Airport

Retrieved 2020/12/06 00:00 UTC (14 minutes ago):

GMML 060000Z 36010KT 8000 HZ SCT015 BKN026 15/14 Q1019 NOSIG

Aviation forecast (TAF) for Hassan I Airport

Retrieved 2020-12-06 00:18 UTC (0 seconds ago):

TAF GMML 052300Z 0600/0706 02008KT 8000 SCT013